Houston's Hourly Summary for Tuesday, July 10, 2018
Hour Temp
(f)
RH
(%)
Solar Rad.
(MJ/m2)
Rainfall
(in)
Wind
(mph)
7/10/2018 12:00 AM 75 86 0 0 0
7/10/2018 1:00 AM 75 92 0 0 0
7/10/2018 2:00 AM 75 93 0 0.01 0
7/10/2018 3:00 AM 74 94 0 0 0
7/10/2018 4:00 AM 74 95 0 0 0
7/10/2018 5:00 AM 73 95 0 0 0
7/10/2018 6:00 AM 73 96 0 0 0
7/10/2018 7:00 AM 73 97 0.03 0.01 0
7/10/2018 8:00 AM 75 85 0.47 0 0
7/10/2018 9:00 AM 82 69 1.11 0 0
7/10/2018 10:00 AM 84 61 1.81 0 0
7/10/2018 11:00 AM 86 54 2.24 0 0
7/10/2018 12:00 PM 88 47 2.71 0.01 0
7/10/2018 1:00 PM 89 45 3.03 0 0
7/10/2018 2:00 PM 90 41 3.16 0 0
7/10/2018 3:00 PM 90 39 3.47 0 3.09
7/10/2018 4:00 PM 87 54 2.68 0.01 6.22
7/10/2018 5:00 PM 90 47 2.43 0 4.63
7/10/2018 6:00 PM 90 47 1.8 0 4.54
7/10/2018 7:00 PM 89 51 1.07 0 4.18
7/10/2018 8:00 PM 86 56 0.33 0 3.55
7/10/2018 9:00 PM 84 62 0.02 0.01 1.64
7/10/2018 10:00 PM 81 69 0 0 0.1
7/10/2018 11:00 PM 80 74 0 0 0
Data Summary 81 68 26.36 0.05 1.16